sensor_id;sensor_type;location;lat;lon;timestamp;pressure;altitude;pressure_sealevel;temperature;humidity
23953;BME280;12163;49.316;6.092;2023-04-15T00:01:50;98427.19;;;11.16;57.11
23953;BME280;12163;49.316;6.092;2023-04-15T00:04:16;98427.81;;;11.13;57.77
23953;BME280;12163;49.316;6.092;2023-04-15T00:06:49;98431.44;;;11.09;57.35
23953;BME280;12163;49.316;6.092;2023-04-15T00:09:18;98427.50;;;11.06;57.28
23953;BME280;12163;49.316;6.092;2023-04-15T00:11:45;98426.69;;;11.06;57.73
23953;BME280;12163;49.316;6.092;2023-04-15T00:14:12;98425.09;;;11.05;58.09
23953;BME280;12163;49.316;6.092;2023-04-15T00:16:38;98423.50;;;11.04;58.16
23953;BME280;12163;49.316;6.092;2023-04-15T00:19:05;98417.34;;;11.03;58.43
23953;BME280;12163;49.316;6.092;2023-04-15T00:21:32;98417.00;;;11.05;58.32
23953;BME280;12163;49.316;6.092;2023-04-15T00:23:58;98419.69;;;11.05;58.35
23953;BME280;12163;49.316;6.092;2023-04-15T00:26:25;98418.91;;;11.04;58.55
23953;BME280;12163;49.316;6.092;2023-04-15T00:28:52;98412.56;;;11.00;58.74
23953;BME280;12163;49.316;6.092;2023-04-15T00:31:19;98419.38;;;10.98;58.72
23953;BME280;12163;49.316;6.092;2023-04-15T00:33:46;98415.09;;;10.97;58.63
23953;BME280;12163;49.316;6.092;2023-04-15T00:36:13;98414.13;;;10.93;58.14
23953;BME280;12163;49.316;6.092;2023-04-15T00:38:39;98413.03;;;10.94;58.29
23953;BME280;12163;49.316;6.092;2023-04-15T00:41:06;98413.03;;;10.94;58.37
23953;BME280;12163;49.316;6.092;2023-04-15T00:43:34;98408.41;;;10.94;58.67
23953;BME280;12163;49.316;6.092;2023-04-15T00:46:03;98403.34;;;10.93;58.54
23953;BME280;12163;49.316;6.092;2023-04-15T00:48:30;98405.22;;;10.92;58.28
23953;BME280;12163;49.316;6.092;2023-04-15T00:50:57;98411.72;;;10.91;58.53
23953;BME280;12163;49.316;6.092;2023-04-15T00:53:24;98409.84;;;10.92;58.34
23953;BME280;12163;49.316;6.092;2023-04-15T00:55:51;98412.84;;;10.90;59.03
23953;BME280;12163;49.316;6.092;2023-04-15T00:58:18;98410.16;;;10.90;59.03
23953;BME280;12163;49.316;6.092;2023-04-15T01:00:44;98407.78;;;10.89;59.23
23953;BME280;12163;49.316;6.092;2023-04-15T01:03:12;98408.06;;;10.87;59.02
23953;BME280;12163;49.316;6.092;2023-04-15T01:05:39;98410.31;;;10.85;58.70
23953;BME280;12163;49.316;6.092;2023-04-15T01:08:07;98408.72;;;10.84;58.41
23953;BME280;12163;49.316;6.092;2023-04-15T01:10:33;98417.09;;;10.83;58.60
23953;BME280;12163;49.316;6.092;2023-04-15T01:13:02;98409.81;;;10.83;58.60
23953;BME280;12163;49.316;6.092;2023-04-15T01:15:29;98404.72;;;10.82;58.67
23953;BME280;12163;49.316;6.092;2023-04-15T01:17:58;98409.66;;;10.80;58.74
23953;BME280;12163;49.316;6.092;2023-04-15T01:20:25;98405.34;;;10.79;58.64
23953;BME280;12163;49.316;6.092;2023-04-15T01:22:53;98406.94;;;10.80;58.61
23953;BME280;12163;49.316;6.092;2023-04-15T01:25:30;98403.00;;;10.77;58.49
23953;BME280;12163;49.316;6.092;2023-04-15T01:27:58;98401.53;;;10.80;59.32
23953;BME280;12163;49.316;6.092;2023-04-15T01:30:25;98409.66;;;10.80;59.91
23953;BME280;12163;49.316;6.092;2023-04-15T01:32:52;98408.06;;;10.79;60.22
23953;BME280;12163;49.316;6.092;2023-04-15T01:35:19;98400.78;;;10.79;60.76
23953;BME280;12163;49.316;6.092;2023-04-15T01:37:47;98392.97;;;10.78;60.07
23953;BME280;12163;49.316;6.092;2023-04-15T01:40:13;98392.50;;;10.76;59.77
23953;BME280;12163;49.316;6.092;2023-04-15T01:42:40;98397.72;;;10.72;59.90
23953;BME280;12163;49.316;6.092;2023-04-15T01:45:07;98394.25;;;10.72;59.46
23953;BME280;12163;49.316;6.092;2023-04-15T01:47:34;98394.25;;;10.72;60.09
23953;BME280;12163;49.316;6.092;2023-04-15T01:50:01;98399.16;;;10.70;60.57
23953;BME280;12163;49.316;6.092;2023-04-15T01:52:27;98404.06;;;10.68;60.59
23953;BME280;12163;49.316;6.092;2023-04-15T01:54:54;98399.28;;;10.65;60.88
23953;BME280;12163;49.316;6.092;2023-04-15T01:57:21;98403.41;;;10.62;60.94
23953;BME280;12163;49.316;6.092;2023-04-15T01:59:47;98396.72;;;10.60;61.08
23953;BME280;12163;49.316;6.092;2023-04-15T02:02:14;98391.66;;;10.58;61.00
23953;BME280;12163;49.316;6.092;2023-04-15T02:04:40;98383.38;;;10.55;61.73
23953;BME280;12163;49.316;6.092;2023-04-15T02:07:07;98386.09;;;10.55;61.49
23953;BME280;12163;49.316;6.092;2023-04-15T02:09:33;98389.88;;;10.54;61.72
23953;BME280;12163;49.316;6.092;2023-04-15T02:12:00;98384.97;;;10.56;61.56
23953;BME280;12163;49.316;6.092;2023-04-15T02:14:27;98385.31;;;10.54;61.93
23953;BME280;12163;49.316;6.092;2023-04-15T02:16:53;98386.38;;;10.53;62.01
23953;BME280;12163;49.316;6.092;2023-04-15T02:19:20;98385.44;;;10.49;62.23
23953;BME280;12163;49.316;6.092;2023-04-15T02:21:47;98383.06;;;10.48;61.79
23953;BME280;12163;49.316;6.092;2023-04-15T02:24:13;98386.06;;;10.46;61.92
23953;BME280;12163;49.316;6.092;2023-04-15T02:26:40;98387.50;;;10.44;62.57
23953;BME280;12163;49.316;6.092;2023-04-15T02:29:07;98387.50;;;10.44;62.37
23953;BME280;12163;49.316;6.092;2023-04-15T02:31:33;98393.19;;;10.42;62.77
23953;BME280;12163;49.316;6.092;2023-04-15T02:34:03;98385.09;;;10.42;62.38
23953;BME280;12163;49.316;6.092;2023-04-15T02:36:30;98396.66;;;10.43;62.40
23953;BME280;12163;49.316;6.092;2023-04-15T02:38:57;98395.88;;;10.42;62.78
23953;BME280;12163;49.316;6.092;2023-04-15T02:41:24;98389.19;;;10.40;62.58
23953;BME280;12163;49.316;6.092;2023-04-15T02:43:53;98394.09;;;10.38;62.48
23953;BME280;12163;49.316;6.092;2023-04-15T02:46:20;98387.44;;;10.35;62.18
23953;BME280;12163;49.316;6.092;2023-04-15T02:48:49;98382.34;;;10.34;62.27
23953;BME280;12163;49.316;6.092;2023-04-15T02:51:20;98389.16;;;10.31;62.15
23953;BME280;12163;49.316;6.092;2023-04-15T02:53:48;98381.06;;;10.31;62.64
23953;BME280;12163;49.316;6.092;2023-04-15T02:56:15;98382.97;;;10.31;62.33
23953;BME280;12163;49.316;6.092;2023-04-15T02:58:43;98382.19;;;10.30;61.49
23953;BME280;12163;49.316;6.092;2023-04-15T03:01:16;98386.78;;;10.30;61.95
23953;BME280;12163;49.316;6.092;2023-04-15T03:03:42;98383.75;;;10.31;61.81
23953;BME280;12163;49.316;6.092;2023-04-15T03:06:09;98394.88;;;10.30;62.09
23953;BME280;12163;49.316;6.092;2023-04-15T03:08:36;98392.19;;;10.30;62.08
23953;BME280;12163;49.316;6.092;2023-04-15T03:11:03;98398.19;;;10.27;62.05
23953;BME280;12163;49.316;6.092;2023-04-15T03:13:30;98395.78;;;10.25;62.71
23953;BME280;12163;49.316;6.092;2023-04-15T03:15:56;98397.72;;;10.25;63.21
23953;BME280;12163;49.316;6.092;2023-04-15T03:18:23;98400.41;;;10.25;63.42
23953;BME280;12163;49.316;6.092;2023-04-15T03:20:50;98394.22;;;10.24;63.70
23953;BME280;12163;49.316;6.092;2023-04-15T03:23:16;98385.66;;;10.22;63.30
23953;BME280;12163;49.316;6.092;2023-04-15T03:25:44;98396.41;;;10.22;63.32
23953;BME280;12163;49.316;6.092;2023-04-15T03:28:11;98402.44;;;10.19;63.46
23953;BME280;12163;49.316;6.092;2023-04-15T03:30:37;98400.03;;;10.18;62.99
23953;BME280;12163;49.316;6.092;2023-04-15T03:33:04;98397.34;;;10.18;63.20
23953;BME280;12163;49.316;6.092;2023-04-15T03:35:30;98400.66;;;10.15;63.27
23953;BME280;12163;49.316;6.092;2023-04-15T03:37:57;98406.06;;;10.15;63.54
23953;BME280;12163;49.316;6.092;2023-04-15T03:40:23;98402.25;;;10.16;63.19
23953;BME280;12163;49.316;6.092;2023-04-15T03:42:50;98395.28;;;10.15;63.15
23953;BME280;12163;49.316;6.092;2023-04-15T03:45:16;98395.28;;;10.15;63.39
23953;BME280;12163;49.316;6.092;2023-04-15T03:47:43;98404.47;;;10.14;63.53
23953;BME280;12163;49.316;6.092;2023-04-15T03:50:10;98399.06;;;10.14;63.17
23953;BME280;12163;49.316;6.092;2023-04-15T03:52:37;98397.81;;;10.11;63.33
23953;BME280;12163;49.316;6.092;2023-04-15T03:55:04;98400.19;;;10.13;63.32
23953;BME280;12163;49.316;6.092;2023-04-15T03:57:30;98402.41;;;10.11;63.53
23953;BME280;12163;49.316;6.092;2023-04-15T03:59:57;98392.72;;;10.10;63.49
23953;BME280;12163;49.316;6.092;2023-04-15T04:02:23;98393.34;;;10.07;63.66
23953;BME280;12163;49.316;6.092;2023-04-15T04:04:50;98391.25;;;10.04;63.54
23953;BME280;12163;49.316;6.092;2023-04-15T04:07:17;98392.38;;;10.03;64.09
23953;BME280;12163;49.316;6.092;2023-04-15T04:09:44;98399.13;;;10.00;64.41
23953;BME280;12163;49.316;6.092;2023-04-15T04:12:12;98397.53;;;9.99;64.47
23953;BME280;12163;49.316;6.092;2023-04-15T04:14:39;98397.84;;;9.98;63.89
23953;BME280;12163;49.316;6.092;2023-04-15T04:17:06;98407.34;;;9.96;64.48
23953;BME280;12163;49.316;6.092;2023-04-15T04:19:32;98404.66;;;9.96;64.19
23953;BME280;12163;49.316;6.092;2023-04-15T04:21:59;98416.53;;;9.95;64.40
23953;BME280;12163;49.316;6.092;2023-04-15T04:24:26;98410.06;;;9.96;63.93
23953;BME280;12163;49.316;6.092;2023-04-15T04:26:53;98411.94;;;9.95;64.09
23953;BME280;12163;49.316;6.092;2023-04-15T04:29:19;98417.31;;;9.95;64.09
23953;BME280;12163;49.316;6.092;2023-04-15T04:31:46;98421.13;;;9.94;64.37
23953;BME280;12163;49.316;6.092;2023-04-15T04:34:14;98415.72;;;9.94;64.25
23953;BME280;12163;49.316;6.092;2023-04-15T04:36:41;98418.91;;;9.96;64.34
23953;BME280;12163;49.316;6.092;2023-04-15T04:39:07;98425.41;;;9.95;64.21
23953;BME280;12163;49.316;6.092;2023-04-15T04:41:34;98426.50;;;9.94;64.36
23953;BME280;12163;49.316;6.092;2023-04-15T04:44:01;98429.81;;;9.91;64.54
23953;BME280;12163;49.316;6.092;2023-04-15T04:46:27;98423.94;;;9.89;64.77
23953;BME280;12163;49.316;6.092;2023-04-15T04:48:54;98437.72;;;9.88;64.96
23953;BME280;12163;49.316;6.092;2023-04-15T04:51:21;98435.34;;;9.86;64.96
23953;BME280;12163;49.316;6.092;2023-04-15T04:53:47;98441.50;;;9.87;64.84
23953;BME280;12163;49.316;6.092;2023-04-15T04:56:14;98431.84;;;10.07;65.25
23953;BME280;12163;49.316;6.092;2023-04-15T04:58:41;98433.72;;;10.59;64.87
23953;BME280;12163;49.316;6.092;2023-04-15T05:01:07;98435.75;;;11.01;64.38
23953;BME280;12163;49.316;6.092;2023-04-15T05:03:34;98438.19;;;11.37;63.59
23953;BME280;12163;49.316;6.092;2023-04-15T05:06:02;98436.47;;;11.58;61.87
23953;BME280;12163;49.316;6.092;2023-04-15T05:08:31;98433.44;;;11.68;60.81
23953;BME280;12163;49.316;6.092;2023-04-15T05:10:58;98428.66;;;11.81;60.88
23953;BME280;12163;49.316;6.092;2023-04-15T05:13:24;98439.44;;;11.98;59.05
23953;BME280;12163;49.316;6.092;2023-04-15T05:15:51;98442.66;;;11.83;58.83
23953;BME280;12163;49.316;6.092;2023-04-15T05:18:18;98445.19;;;11.55;58.44
23953;BME280;12163;49.316;6.092;2023-04-15T05:20:45;98448.03;;;11.33;58.88
23953;BME280;12163;49.316;6.092;2023-04-15T05:23:12;98457.06;;;11.28;59.04
23953;BME280;12163;49.316;6.092;2023-04-15T05:25:39;98455.63;;;11.31;59.35
23953;BME280;12163;49.316;6.092;2023-04-15T05:28:05;98456.59;;;11.35;58.74
23953;BME280;12163;49.316;6.092;2023-04-15T05:30:32;98461.34;;;11.21;58.74
23953;BME280;12163;49.316;6.092;2023-04-15T05:32:59;98471.31;;;11.03;58.60
23953;BME280;12163;49.316;6.092;2023-04-15T05:35:26;98468.25;;;10.88;58.63
23953;BME280;12163;49.316;6.092;2023-04-15T05:37:53;98482.50;;;10.80;59.03
23953;BME280;12163;49.316;6.092;2023-04-15T05:40:19;98484.06;;;10.72;58.82
23953;BME280;12163;49.316;6.092;2023-04-15T05:42:46;98482.78;;;10.70;58.79
23953;BME280;12163;49.316;6.092;2023-04-15T05:45:12;98472.78;;;10.70;59.78
23953;BME280;12163;49.316;6.092;2023-04-15T05:47:39;98474.88;;;10.82;59.26
23953;BME280;12163;49.316;6.092;2023-04-15T05:50:06;98474.63;;;10.92;59.03
23953;BME280;12163;49.316;6.092;2023-04-15T05:52:32;98476.22;;;10.93;58.86
23953;BME280;12163;49.316;6.092;2023-04-15T05:54:59;98468.59;;;10.95;58.46
23953;BME280;12163;49.316;6.092;2023-04-15T05:57:26;98477.44;;;10.87;58.70
23953;BME280;12163;49.316;6.092;2023-04-15T05:59:52;98485.81;;;10.77;59.06
23953;BME280;12163;49.316;6.092;2023-04-15T06:02:19;98486.25;;;10.70;59.89
23953;BME280;12163;49.316;6.092;2023-04-15T06:04:46;98481.19;;;10.69;59.87
23953;BME280;12163;49.316;6.092;2023-04-15T06:07:13;98495.31;;;10.74;60.26
23953;BME280;12163;49.316;6.092;2023-04-15T06:09:40;98492.94;;;10.73;59.52
23953;BME280;12163;49.316;6.092;2023-04-15T06:12:06;98492.31;;;10.76;59.67
23953;BME280;12163;49.316;6.092;2023-04-15T06:14:37;98500.91;;;10.78;58.40
23953;BME280;12163;49.316;6.092;2023-04-15T06:17:06;98502.63;;;10.74;58.24
23953;BME280;12163;49.316;6.092;2023-04-15T06:19:33;98509.16;;;10.73;57.97
23953;BME280;12163;49.316;6.092;2023-04-15T06:22:00;98505.16;;;10.70;57.81
23953;BME280;12163;49.316;6.092;2023-04-15T06:24:27;98500.38;;;10.67;58.28
23953;BME280;12163;49.316;6.092;2023-04-15T06:26:54;98508.81;;;10.66;58.35
23953;BME280;12163;49.316;6.092;2023-04-15T06:29:21;98512.47;;;10.70;58.67
23953;BME280;12163;49.316;6.092;2023-04-15T06:31:47;98510.09;;;10.77;58.40
23953;BME280;12163;49.316;6.092;2023-04-15T06:34:15;98510.59;;;10.79;58.20
23953;BME280;12163;49.316;6.092;2023-04-15T06:36:41;98521.09;;;10.80;58.19
23953;BME280;12163;49.316;6.092;2023-04-15T06:39:08;98526.00;;;10.87;57.64
23953;BME280;12163;49.316;6.092;2023-04-15T06:41:35;98527.16;;;10.94;57.49
23953;BME280;12163;49.316;6.092;2023-04-15T06:44:01;98528.31;;;11.02;57.06
23953;BME280;12163;49.316;6.092;2023-04-15T06:46:28;98524.81;;;11.10;56.86
23953;BME280;12163;49.316;6.092;2023-04-15T06:48:55;98513.75;;;11.20;56.57
23953;BME280;12163;49.316;6.092;2023-04-15T06:51:21;98520.13;;;11.24;55.79
23953;BME280;12163;49.316;6.092;2023-04-15T06:53:51;98520.94;;;11.33;55.48
23953;BME280;12163;49.316;6.092;2023-04-15T06:56:18;98519.84;;;11.42;55.26
23953;BME280;12163;49.316;6.092;2023-04-15T06:58:45;98515.91;;;11.48;54.27
23953;BME280;12163;49.316;6.092;2023-04-15T07:01:12;98517.31;;;11.46;53.96
23953;BME280;12163;49.316;6.092;2023-04-15T07:03:39;98514.13;;;11.44;54.38
23953;BME280;12163;49.316;6.092;2023-04-15T07:06:07;98525.41;;;11.46;53.71
23953;BME280;12163;49.316;6.092;2023-04-15T07:08:34;98520.84;;;11.55;53.89
23953;BME280;12163;49.316;6.092;2023-04-15T07:11:01;98518.47;;;11.62;53.98
23953;BME280;12163;49.316;6.092;2023-04-15T07:13:30;98520.56;;;11.73;54.38
23953;BME280;12163;49.316;6.092;2023-04-15T07:15:57;98527.56;;;11.82;54.06
23953;BME280;12163;49.316;6.092;2023-04-15T07:18:24;98533.13;;;11.94;53.96
23953;BME280;12163;49.316;6.092;2023-04-15T07:20:50;98539.81;;;12.05;52.76
23953;BME280;12163;49.316;6.092;2023-04-15T07:23:17;98541.22;;;12.11;52.73
23953;BME280;12163;49.316;6.092;2023-04-15T07:25:44;98546.94;;;12.18;52.68
23953;BME280;12163;49.316;6.092;2023-04-15T07:28:10;98535.00;;;12.28;52.73
23953;BME280;12163;49.316;6.092;2023-04-15T07:30:37;98536.09;;;12.35;52.23
23953;BME280;12163;49.316;6.092;2023-04-15T07:33:04;98548.22;;;12.46;52.24
23953;BME280;12163;49.316;6.092;2023-04-15T07:35:31;98551.03;;;12.58;51.66
23953;BME280;12163;49.316;6.092;2023-04-15T07:37:57;98562.78;;;12.62;51.14
23953;BME280;12163;49.316;6.092;2023-04-15T07:40:24;98560.41;;;12.69;51.27
23953;BME280;12163;49.316;6.092;2023-04-15T07:42:50;98568.81;;;12.76;51.60
23953;BME280;12163;49.316;6.092;2023-04-15T07:45:17;98576.75;;;12.81;50.64
23953;BME280;12163;49.316;6.092;2023-04-15T07:47:44;98566.41;;;12.83;50.32
23953;BME280;12163;49.316;6.092;2023-04-15T07:50:11;98569.94;;;12.92;49.84
23953;BME280;12163;49.316;6.092;2023-04-15T07:52:37;98572.28;;;13.02;49.92
23953;BME280;12163;49.316;6.092;2023-04-15T07:55:08;98575.13;;;13.14;49.24
23953;BME280;12163;49.316;6.092;2023-04-15T07:57:35;98576.31;;;13.25;49.45
23953;BME280;12163;49.316;6.092;2023-04-15T08:00:03;98589.06;;;13.33;49.18
23953;BME280;12163;49.316;6.092;2023-04-15T08:02:33;98587.25;;;13.46;49.39
23953;BME280;12163;49.316;6.092;2023-04-15T08:05:03;98593.09;;;13.56;48.75
23953;BME280;12163;49.316;6.092;2023-04-15T08:07:30;98592.44;;;13.59;49.32
23953;BME280;12163;49.316;6.092;2023-04-15T08:09:57;98595.78;;;13.56;48.98
23953;BME280;12163;49.316;6.092;2023-04-15T08:12:24;98595.69;;;13.44;48.44
23953;BME280;12163;49.316;6.092;2023-04-15T08:14:51;98603.19;;;13.39;48.96
23953;BME280;12163;49.316;6.092;2023-04-15T08:17:17;98594.94;;;13.35;48.51
23953;BME280;12163;49.316;6.092;2023-04-15T08:19:44;98587.94;;;13.34;49.35
23953;BME280;12163;49.316;6.092;2023-04-15T08:22:10;98595.53;;;13.41;48.94
23953;BME280;12163;49.316;6.092;2023-04-15T08:24:44;98601.09;;;13.44;48.23
23953;BME280;12163;49.316;6.092;2023-04-15T08:27:11;98592.66;;;13.46;48.37
23953;BME280;12163;49.316;6.092;2023-04-15T08:29:38;98607.34;;;13.45;47.95
23953;BME280;12163;49.316;6.092;2023-04-15T08:32:05;98603.34;;;13.42;46.38
23953;BME280;12163;49.316;6.092;2023-04-15T08:34:33;98610.50;;;13.47;47.44
23953;BME280;12163;49.316;6.092;2023-04-15T08:37:00;98609.34;;;13.56;47.62
23953;BME280;12163;49.316;6.092;2023-04-15T08:39:26;98608.03;;;13.62;46.49
23953;BME280;12163;49.316;6.092;2023-04-15T08:41:59;98615.31;;;13.70;47.24
23953;BME280;12163;49.316;6.092;2023-04-15T08:44:29;98617.66;;;13.80;46.93
23953;BME280;12163;49.316;6.092;2023-04-15T08:47:00;98607.91;;;13.87;46.05
23953;BME280;12163;49.316;6.092;2023-04-15T08:49:28;98617.63;;;13.88;45.85
23953;BME280;12163;49.316;6.092;2023-04-15T08:51:57;98620.25;;;13.97;47.13
23953;BME280;12163;49.316;6.092;2023-04-15T08:54:24;98615.94;;;13.96;47.03
23953;BME280;12163;49.316;6.092;2023-04-15T08:56:51;98618.03;;;13.99;46.46
23953;BME280;12163;49.316;6.092;2023-04-15T08:59:19;98616.19;;;14.11;46.43
23953;BME280;12163;49.316;6.092;2023-04-15T09:01:48;98626.81;;;14.25;46.50
23953;BME280;12163;49.316;6.092;2023-04-15T09:04:16;98622.03;;;14.22;45.51
23953;BME280;12163;49.316;6.092;2023-04-15T09:06:43;98627.47;;;14.22;45.93
23953;BME280;12163;49.316;6.092;2023-04-15T09:09:11;98635.66;;;14.34;45.69
23953;BME280;12163;49.316;6.092;2023-04-15T09:11:39;98636.66;;;14.50;45.60
23953;BME280;12163;49.316;6.092;2023-04-15T09:14:06;98645.19;;;14.60;45.24
23953;BME280;12163;49.316;6.092;2023-04-15T09:16:56;98653.78;;;14.62;45.49
23953;BME280;12163;49.316;6.092;2023-04-15T09:19:23;98652.53;;;14.60;45.11
23953;BME280;12163;49.316;6.092;2023-04-15T09:21:55;98659.28;;;14.54;44.66
23953;BME280;12163;49.316;6.092;2023-04-15T09:24:25;98660.56;;;14.56;44.58
23953;BME280;12163;49.316;6.092;2023-04-15T09:26:59;98656.66;;;14.66;43.87
23953;BME280;12163;49.316;6.092;2023-04-15T09:29:25;98661.19;;;14.74;44.16
23953;BME280;12163;49.316;6.092;2023-04-15T09:31:52;98663.16;;;14.85;43.60
23953;BME280;12163;49.316;6.092;2023-04-15T09:34:19;98661.97;;;14.95;42.36
23953;BME280;12163;49.316;6.092;2023-04-15T09:39:16;98662.03;;;15.18;42.42
23953;BME280;12163;49.316;6.092;2023-04-15T09:41:42;98664.78;;;15.30;41.73
23953;BME280;12163;49.316;6.092;2023-04-15T09:46:49;98656.56;;;15.51;41.67
23953;BME280;12163;49.316;6.092;2023-04-15T09:49:16;98662.25;;;15.70;41.73
23953;BME280;12163;49.316;6.092;2023-04-15T09:51:43;98662.13;;;15.90;41.11
23953;BME280;12163;49.316;6.092;2023-04-15T09:54:34;98661.66;;;16.12;41.12
23953;BME280;12163;49.316;6.092;2023-04-15T09:57:06;98665.97;;;16.13;39.94
23953;BME280;12163;49.316;6.092;2023-04-15T09:59:33;98661.91;;;16.07;39.50
23953;BME280;12163;49.316;6.092;2023-04-15T10:02:05;98666.19;;;16.20;39.13
23953;BME280;12163;49.316;6.092;2023-04-15T10:04:39;98668.91;;;16.32;38.68
23953;BME280;12163;49.316;6.092;2023-04-15T10:07:07;98663.69;;;16.39;38.08
23953;BME280;12163;49.316;6.092;2023-04-15T10:09:35;98659.38;;;16.38;38.63
23953;BME280;12163;49.316;6.092;2023-04-15T10:12:03;98675.94;;;16.33;39.46
23953;BME280;12163;49.316;6.092;2023-04-15T10:14:34;98673.22;;;16.33;39.50
23953;BME280;12163;49.316;6.092;2023-04-15T10:17:04;98663.00;;;16.42;39.84
23953;BME280;12163;49.316;6.092;2023-04-15T10:19:33;98673.53;;;16.56;38.99
23953;BME280;12163;49.316;6.092;2023-04-15T10:22:02;98670.56;;;16.61;38.41
23953;BME280;12163;49.316;6.092;2023-04-15T10:24:32;98673.75;;;16.63;38.33
23953;BME280;12163;49.316;6.092;2023-04-15T10:26:59;98673.75;;;16.63;36.49
23953;BME280;12163;49.316;6.092;2023-04-15T10:29:27;98683.16;;;16.65;36.80
23953;BME280;12163;49.316;6.092;2023-04-15T10:31:57;98681.97;;;16.78;36.15
23953;BME280;12163;49.316;6.092;2023-04-15T10:34:25;98677.84;;;16.84;35.73
23953;BME280;12163;49.316;6.092;2023-04-15T10:36:56;98681.50;;;16.88;35.90
23953;BME280;12163;49.316;6.092;2023-04-15T10:42:11;98688.84;;;17.15;34.74
23953;BME280;12163;49.316;6.092;2023-04-15T10:44:42;98693.09;;;17.28;32.79
23953;BME280;12163;49.316;6.092;2023-04-15T10:47:13;98691.13;;;17.40;29.39
23953;BME280;12163;49.316;6.092;2023-04-15T10:49:48;98688.50;;;17.44;29.32
23953;BME280;12163;49.316;6.092;2023-04-15T10:52:26;98703.44;;;17.50;27.97
23953;BME280;12163;49.316;6.092;2023-04-15T10:55:13;98705.47;;;17.53;27.82
23953;BME280;12163;49.316;6.092;2023-04-15T10:57:44;98712.63;;;17.73;26.93
23953;BME280;12163;49.316;6.092;2023-04-15T11:00:11;98707.97;;;17.89;27.52
23953;BME280;12163;49.316;6.092;2023-04-15T11:05:08;98708.13;;;17.96;28.02
23953;BME280;12163;49.316;6.092;2023-04-15T11:07:39;98707.00;;;18.12;27.35
23953;BME280;12163;49.316;6.092;2023-04-15T11:12:40;98703.00;;;18.25;25.74
23953;BME280;12163;49.316;6.092;2023-04-15T11:15:33;98716.22;;;18.23;25.82
23953;BME280;12163;49.316;6.092;2023-04-15T11:18:10;98717.03;;;18.24;26.46
23953;BME280;12163;49.316;6.092;2023-04-15T11:20:39;98719.38;;;18.25;26.56
23953;BME280;12163;49.316;6.092;2023-04-15T11:23:07;98722.66;;;18.31;27.35
23953;BME280;12163;49.316;6.092;2023-04-15T11:25:40;98723.88;;;18.49;27.86
23953;BME280;12163;49.316;6.092;2023-04-15T11:28:10;98727.06;;;18.70;27.75
23953;BME280;12163;49.316;6.092;2023-04-15T11:30:38;98723.22;;;18.89;26.97
23953;BME280;12163;49.316;6.092;2023-04-15T11:33:07;98716.44;;;19.02;26.04
23953;BME280;12163;49.316;6.092;2023-04-15T11:35:35;98720.91;;;19.10;26.38
23953;BME280;12163;49.316;6.092;2023-04-15T11:38:08;98722.13;;;19.13;26.75
23953;BME280;12163;49.316;6.092;2023-04-15T11:40:36;98741.09;;;19.21;26.92
23953;BME280;12163;49.316;6.092;2023-04-15T11:43:11;98734.78;;;19.40;26.41
23953;BME280;12163;49.316;6.092;2023-04-15T11:45:54;98730.22;;;19.66;25.87
23953;BME280;12163;49.316;6.092;2023-04-15T11:48:32;98739.22;;;19.89;25.83
23953;BME280;12163;49.316;6.092;2023-04-15T11:51:04;98736.00;;;19.84;25.00
23953;BME280;12163;49.316;6.092;2023-04-15T11:53:41;98750.47;;;19.62;25.83
23953;BME280;12163;49.316;6.092;2023-04-15T11:56:09;98754.03;;;19.43;24.32
23953;BME280;12163;49.316;6.092;2023-04-15T11:58:37;98750.28;;;19.13;24.90
23953;BME280;12163;49.316;6.092;2023-04-15T12:01:05;98754.72;;;19.02;25.50
23953;BME280;12163;49.316;6.092;2023-04-15T12:03:40;98750.00;;;19.18;25.72
23953;BME280;12163;49.316;6.092;2023-04-15T12:16:48;98755.31;;;19.49;25.29
23953;BME280;12163;49.316;6.092;2023-04-15T12:19:26;98764.84;;;19.36;25.65
23953;BME280;12163;49.316;6.092;2023-04-15T12:21:59;98771.16;;;19.40;25.80
23953;BME280;12163;49.316;6.092;2023-04-15T12:24:27;98780.63;;;19.43;26.32
23953;BME280;12163;49.316;6.092;2023-04-15T12:26:55;98793.78;;;19.37;26.01
23953;BME280;12163;49.316;6.092;2023-04-15T12:29:27;98794.81;;;19.14;26.11
23953;BME280;12163;49.316;6.092;2023-04-15T12:32:04;98794.84;;;18.79;25.88
23953;BME280;12163;49.316;6.092;2023-04-15T12:34:33;98800.63;;;18.59;26.49
23953;BME280;12163;49.316;6.092;2023-04-15T12:37:02;98802.91;;;18.57;26.88
23953;BME280;12163;49.316;6.092;2023-04-15T12:39:30;98805.91;;;18.52;27.26
23953;BME280;12163;49.316;6.092;2023-04-15T12:41:58;98811.09;;;18.42;26.87
23953;BME280;12163;49.316;6.092;2023-04-15T12:44:26;98812.91;;;18.34;27.38
23953;BME280;12163;49.316;6.092;2023-04-15T12:46:53;98813.22;;;18.17;27.70
23953;BME280;12163;49.316;6.092;2023-04-15T12:49:21;98821.13;;;18.07;27.97
23953;BME280;12163;49.316;6.092;2023-04-15T12:51:48;98828.88;;;18.05;28.30
23953;BME280;12163;49.316;6.092;2023-04-15T12:54:16;98823.44;;;18.05;28.41
23953;BME280;12163;49.316;6.092;2023-04-15T12:56:44;98827.09;;;17.97;27.40
23953;BME280;12163;49.316;6.092;2023-04-15T12:59:12;98831.78;;;17.96;28.80
23953;BME280;12163;49.316;6.092;2023-04-15T13:01:39;98823.00;;;18.18;28.51
23953;BME280;12163;49.316;6.092;2023-04-15T13:04:06;98819.84;;;18.47;27.90
23953;BME280;12163;49.316;6.092;2023-04-15T13:06:33;98822.78;;;18.73;26.68
23953;BME280;12163;49.316;6.092;2023-04-15T13:09:00;98832.28;;;18.94;27.53
23953;BME280;12163;49.316;6.092;2023-04-15T13:11:30;98833.59;;;19.00;26.20
23953;BME280;12163;49.316;6.092;2023-04-15T13:14:00;98835.59;;;19.03;25.82
23953;BME280;12163;49.316;6.092;2023-04-15T13:16:28;98827.69;;;18.98;26.13
23953;BME280;12163;49.316;6.092;2023-04-15T13:18:55;98824.47;;;19.12;25.91
23953;BME280;12163;49.316;6.092;2023-04-15T13:21:21;98847.69;;;19.37;26.01
23953;BME280;12163;49.316;6.092;2023-04-15T13:23:48;98840.44;;;19.44;24.97
23953;BME280;12163;49.316;6.092;2023-04-15T13:26:17;98844.97;;;19.37;24.29
23953;BME280;12163;49.316;6.092;2023-04-15T13:28:44;98848.22;;;19.42;24.09